createdAt,value
2023-02-14T00:01:20.705Z,102079.84
2023-02-14T00:03:49.398Z,102075.19
2023-02-14T00:06:16.559Z,102088.44
2023-02-14T00:08:46.441Z,102086.41
2023-02-14T00:11:14.234Z,102079.50
2023-02-14T00:14:01.220Z,102074.50
2023-02-14T00:16:28.330Z,102062.28
2023-02-14T00:19:04.012Z,102072.47
2023-02-14T00:21:36.031Z,102066.94
2023-02-14T00:24:09.468Z,102058.22
2023-02-14T00:26:38.856Z,102057.75
2023-02-14T00:29:12.863Z,102052.53
2023-02-14T00:31:41.107Z,102065.91
2023-02-14T00:34:10.231Z,102064.09
2023-02-14T00:36:37.341Z,102075.53
2023-02-14T00:39:06.316Z,102066.13
2023-02-14T00:41:33.849Z,102064.75
2023-02-14T00:44:00.959Z,102068.03
2023-02-14T00:46:28.592Z,102074.94
2023-02-14T00:48:55.967Z,102066.69
2023-02-14T00:51:23.766Z,102076.88
2023-02-14T00:53:51.587Z,102073.47
2023-02-14T00:56:20.578Z,102072.44
2023-02-14T00:58:48.008Z,102066.34
2023-02-14T01:01:16.738Z,102067.00
2023-02-14T01:03:43.779Z,102066.09
2023-02-14T01:06:11.048Z,102064.06
2023-02-14T01:08:38.295Z,102068.34
2023-02-14T01:11:16.216Z,102062.00
2023-02-14T01:13:44.732Z,102068.91
2023-02-14T01:16:17.657Z,102069.34
2023-02-14T01:18:45.413Z,102062.78
2023-02-14T01:21:28.656Z,102072.16
2023-02-14T01:23:59.687Z,102073.19
2023-02-14T01:26:28.088Z,102074.09
2023-02-14T01:28:56.191Z,102069.66
2023-02-14T01:31:27.547Z,102066.47
2023-02-14T01:33:55.709Z,102056.13
2023-02-14T01:36:25.368Z,102059.78
2023-02-14T01:38:56.245Z,102059.13
2023-02-14T01:41:24.690Z,102064.72
2023-02-14T01:44:01.313Z,102057.69
2023-02-14T01:46:32.679Z,102062.38
2023-02-14T01:49:20.823Z,102072.72
2023-02-14T01:51:54.327Z,102070.22
2023-02-14T01:54:25.727Z,102062.13
2023-02-14T01:57:01.577Z,102062.31
2023-02-14T01:59:37.321Z,102071.69
2023-02-14T02:02:05.977Z,102065.94
2023-02-14T02:04:38.360Z,102069.56
2023-02-14T02:07:15.364Z,102064.44
2023-02-14T02:09:55.528Z,102066.25
2023-02-14T02:12:24.033Z,102070.44
2023-02-14T02:14:54.910Z,102072.66
2023-02-14T02:18:11.704Z,102069.03
2023-02-14T02:21:08.838Z,102069.22
2023-02-14T02:23:56.569Z,102070.69
2023-02-14T02:27:08.622Z,102065.28
2023-02-14T02:30:21.238Z,102063.00
2023-02-14T02:33:00.203Z,102060.28
2023-02-14T02:35:42.161Z,102049.16
2023-02-14T02:38:26.323Z,102046.31
2023-02-14T02:41:04.552Z,102046.31
2023-02-14T02:44:15.999Z,102046.31
2023-02-14T02:47:11.856Z,102052.66
2023-02-14T02:50:27.350Z,102046.31
2023-02-14T02:53:07.019Z,102046.44
2023-02-14T02:56:12.941Z,102038.03
2023-02-14T02:58:45.897Z,102035.09
2023-02-14T03:01:19.833Z,102029.41
2023-02-14T03:04:08.983Z,102034.84
2023-02-14T03:06:36.164Z,102031.47
2023-02-14T03:09:33.432Z,102039.38
2023-02-14T03:12:33.845Z,102041.59
2023-02-14T03:15:29.509Z,102034.00
2023-02-14T03:18:27.046Z,102030.91
2023-02-14T03:21:26.184Z,102022.34
2023-02-14T03:24:11.648Z,102024.03
2023-02-14T03:27:12.288Z,102012.97
2023-02-14T03:30:07.866Z,102006.50
2023-02-14T03:33:26.489Z,102010.38
2023-02-14T03:36:25.994Z,102004.41
2023-02-14T03:39:15.119Z,102006.19
2023-02-14T03:41:54.682Z,101997.75
2023-02-14T03:44:25.878Z,101982.94
2023-02-14T03:47:08.429Z,101986.69
2023-02-14T03:49:43.428Z,101976.28
2023-02-14T03:52:12.862Z,101973.69
2023-02-14T03:54:40.510Z,101962.75
2023-02-14T03:57:19.469Z,101956.78
2023-02-14T03:59:46.650Z,101948.06
2023-02-14T04:02:35.216Z,101942.88
2023-02-14T04:05:09.881Z,101938.47
2023-02-14T04:07:53.707Z,101935.88
2023-02-14T04:10:21.871Z,101934.41
2023-02-14T04:12:49.780Z,101926.06
2023-02-14T04:15:18.018Z,101926.19
2023-02-14T04:18:03.697Z,101919.66
2023-02-14T04:20:30.918Z,101917.19
2023-02-14T04:22:57.964Z,101906.78
2023-02-14T04:25:25.093Z,101901.03
2023-02-14T04:27:52.200Z,101888.94
2023-02-14T04:30:20.950Z,101892.44
2023-02-14T04:32:48.359Z,101884.53
2023-02-14T04:35:16.250Z,101878.88
2023-02-14T04:37:43.480Z,101874.72
2023-02-14T04:40:11.236Z,101860.69
2023-02-14T04:42:38.186Z,101850.75
2023-02-14T04:45:05.674Z,101849.03
2023-02-14T04:47:32.716Z,101842.28
2023-02-14T04:49:59.748Z,101829.28
2023-02-14T04:52:27.173Z,101837.06
2023-02-14T04:54:54.245Z,101826.91
2023-02-14T04:57:21.592Z,101828.72
2023-02-14T04:59:48.515Z,101819.22
2023-02-14T05:02:15.723Z,101815.84
2023-02-14T05:04:42.837Z,101812.44
2023-02-14T05:07:09.848Z,101806.69
2023-02-14T05:09:36.921Z,101806.56
2023-02-14T05:12:04.091Z,101798.88
2023-02-14T05:14:31.064Z,101797.41
2023-02-14T05:16:58.168Z,101797.06
2023-02-14T05:19:25.400Z,101799.00
2023-02-14T05:21:52.352Z,101798.31
2023-02-14T05:24:19.397Z,101796.84
2023-02-14T05:26:46.547Z,101793.13
2023-02-14T05:29:13.512Z,101799.56
2023-02-14T05:31:40.637Z,101802.16
2023-02-14T05:34:07.714Z,101806.00
2023-02-14T05:36:34.819Z,101809.50
2023-02-14T05:39:01.957Z,101806.13
2023-02-14T05:41:29.001Z,101817.88
2023-02-14T05:43:56.064Z,101812.44
2023-02-14T05:46:23.047Z,101817.88
2023-02-14T05:48:50.037Z,101821.84
2023-02-14T05:51:17.044Z,101820.03
2023-02-14T05:53:44.064Z,101824.22
2023-02-14T05:56:11.130Z,101828.63
2023-02-14T05:58:38.123Z,101838.91
2023-02-14T06:01:05.311Z,101831.00
2023-02-14T06:03:32.300Z,101836.88
2023-02-14T06:05:59.398Z,101831.00
2023-02-14T06:08:26.415Z,101834.38
2023-02-14T06:10:53.628Z,101837.09
2023-02-14T06:13:20.674Z,101839.69
2023-02-14T06:15:47.763Z,101838.13
2023-02-14T06:18:14.818Z,101846.69
2023-02-14T06:20:41.792Z,101845.22
2023-02-14T06:23:08.841Z,101850.53
2023-02-14T06:25:35.904Z,101859.25
2023-02-14T06:28:04.272Z,101852.13
2023-02-14T06:30:31.401Z,101862.75
2023-02-14T06:33:02.503Z,101864.47
2023-02-14T06:35:29.476Z,101865.13
2023-02-14T06:37:56.452Z,101875.66
2023-02-14T06:40:24.130Z,101878.25
2023-02-14T06:42:51.121Z,101882.88
2023-02-14T06:45:18.223Z,101893.41
2023-02-14T06:47:45.999Z,101894.06
2023-02-14T06:50:13.089Z,101903.00
2023-02-14T06:52:42.138Z,101901.66
2023-02-14T06:55:11.779Z,101899.84
2023-02-14T06:57:39.338Z,101904.81
2023-02-14T07:00:07.705Z,101894.19
2023-02-14T07:02:34.755Z,101900.28
2023-02-14T07:05:01.801Z,101904.16
2023-02-14T07:07:28.760Z,101906.97
2023-02-14T07:09:55.825Z,101908.31
2023-02-14T07:12:22.847Z,101909.22
2023-02-14T07:14:49.824Z,101911.59
2023-02-14T07:17:16.783Z,101912.50
2023-02-14T07:19:43.808Z,101916.00
2023-02-14T07:22:10.776Z,101914.31
2023-02-14T07:24:37.773Z,101913.53
2023-02-14T07:27:04.815Z,101914.66
2023-02-14T07:29:31.775Z,101919.97
2023-02-14T07:31:58.815Z,101922.47
2023-02-14T07:34:27.316Z,101923.13
2023-02-14T07:36:54.382Z,101925.75
2023-02-14T07:39:21.511Z,101936.50
2023-02-14T07:41:48.477Z,101930.75
2023-02-14T07:44:15.478Z,101938.56
2023-02-14T07:46:42.522Z,101938.78
2023-02-14T07:49:09.546Z,101939.59
2023-02-14T07:51:36.658Z,101937.31
2023-02-14T07:54:04.218Z,101947.16
2023-02-14T07:56:31.308Z,101945.69
2023-02-14T07:58:58.365Z,101951.56
2023-02-14T08:01:25.619Z,101948.19
2023-02-14T08:03:52.814Z,101946.81
2023-02-14T08:06:21.188Z,101957.69
2023-02-14T08:08:48.881Z,101958.03
2023-02-14T08:11:36.047Z,101966.19
2023-02-14T08:14:04.916Z,101962.31
2023-02-14T08:16:34.371Z,101964.13
2023-02-14T08:19:02.460Z,101960.88
2023-02-14T08:21:29.729Z,101968.34
2023-02-14T08:23:57.023Z,101969.69
2023-02-14T08:26:24.764Z,101974.56
2023-02-14T08:28:51.947Z,101986.09
2023-02-14T08:31:36.690Z,101988.81
2023-02-14T08:34:07.981Z,101989.94
2023-02-14T08:36:35.650Z,101999.00
2023-02-14T08:39:05.430Z,101992.78
2023-02-14T08:41:33.125Z,101993.78
2023-02-14T08:44:00.490Z,101994.47
2023-02-14T08:46:28.105Z,102000.47
2023-02-14T08:48:56.565Z,102010.31
2023-02-14T08:51:25.915Z,102016.88
2023-02-14T08:53:53.289Z,102023.44
2023-02-14T08:56:22.744Z,102027.19
2023-02-14T08:58:53.606Z,102036.69
2023-02-14T09:01:21.047Z,102041.34
2023-02-14T09:03:48.170Z,102044.41
2023-02-14T09:06:17.535Z,102052.53
2023-02-14T09:08:45.867Z,102051.31
2023-02-14T09:11:21.934Z,102063.97
2023-02-14T09:13:50.997Z,102071.00
2023-02-14T09:16:19.530Z,102081.09
2023-02-14T09:18:48.484Z,102083.00
2023-02-14T09:21:20.509Z,102082.56
2023-02-14T09:23:47.660Z,102094.34
2023-02-14T09:26:16.527Z,102098.53
2023-02-14T09:28:44.980Z,102103.16
2023-02-14T09:31:16.990Z,102104.88
2023-02-14T09:34:04.391Z,102119.94
2023-02-14T09:36:31.425Z,102122.09
2023-02-14T09:38:58.418Z,102131.38
2023-02-14T09:41:31.362Z,102141.59
2023-02-14T09:44:13.694Z,102151.22
2023-02-14T09:46:49.037Z,102164.59
2023-02-14T09:49:29.826Z,102158.56
2023-02-14T09:51:57.643Z,102164.13
2023-02-14T09:54:28.696Z,102167.88
2023-02-14T09:57:39.271Z,102172.75
2023-02-14T10:00:30.297Z,102186.91
2023-02-14T10:03:34.636Z,102199.50
2023-02-14T10:06:38.442Z,102198.59
2023-02-14T10:09:30.118Z,102201.88
2023-02-14T10:12:00.148Z,102205.16
2023-02-14T10:14:36.616Z,102210.50
2023-02-14T10:17:18.505Z,102211.41
2023-02-14T10:19:52.441Z,102224.09
2023-02-14T10:22:26.947Z,102235.53
2023-02-14T10:25:24.057Z,102239.06
2023-02-14T10:27:53.471Z,102238.50
2023-02-14T10:30:23.719Z,102253.13
2023-02-14T10:33:17.058Z,102254.03
2023-02-14T10:35:53.648Z,102261.16
2023-02-14T10:38:36.131Z,102261.97
2023-02-14T10:41:27.453Z,102263.31
2023-02-14T10:44:37.417Z,102277.16
2023-02-14T10:47:41.963Z,102274.78
2023-02-14T10:50:49.640Z,102281.13
2023-02-14T10:53:47.641Z,102287.22
2023-02-14T10:56:27.942Z,102291.22
2023-02-14T10:58:56.717Z,102292.00
2023-02-14T11:01:24.421Z,102301.88
2023-02-14T11:04:08.750Z,102299.84
2023-02-14T11:06:35.819Z,102303.34
2023-02-14T11:09:03.536Z,102301.06
2023-02-14T11:11:39.218Z,102317.16
2023-02-14T11:14:32.778Z,102321.94
2023-02-14T11:17:27.500Z,102328.84
2023-02-14T11:20:06.519Z,102319.47
2023-02-14T11:22:35.475Z,102326.59
2023-02-14T11:25:19.553Z,102328.75
2023-02-14T11:27:52.524Z,102336.22
2023-02-14T11:30:30.455Z,102340.44
2023-02-14T11:32:57.938Z,102343.38
2023-02-14T11:35:33.932Z,102348.38
2023-02-14T11:38:24.880Z,102347.91
2023-02-14T11:40:56.491Z,102347.13
2023-02-14T11:43:44.871Z,102345.09
2023-02-14T11:46:20.609Z,102336.34
2023-02-14T11:49:02.268Z,102344.50
2023-02-14T11:51:41.920Z,102349.28
2023-02-14T11:54:22.722Z,102355.84
2023-02-14T11:56:57.054Z,102348.69
2023-02-14T11:59:52.013Z,102353.69
2023-02-14T12:02:40.213Z,102339.75
2023-02-14T12:05:31.569Z,102349.25
2023-02-14T12:08:05.395Z,102341.56
2023-02-14T12:10:36.530Z,102343.38
2023-02-14T12:13:09.400Z,102340.41
2023-02-14T12:15:43.843Z,102340.75
2023-02-14T12:18:34.989Z,102335.16
2023-02-14T12:21:47.630Z,102336.88
2023-02-14T12:24:41.610Z,102332.91
2023-02-14T12:27:35.814Z,102330.28
2023-02-14T12:30:22.457Z,102347.50
2023-02-14T12:32:56.638Z,102343.44
2023-02-14T12:36:01.122Z,102337.78
2023-02-14T12:39:23.285Z,102335.88
2023-02-14T12:42:11.572Z,102333.59
2023-02-14T12:45:24.249Z,102332.22
2023-02-14T12:48:15.115Z,102332.31
2023-02-14T12:51:08.762Z,102329.50
2023-02-14T12:54:08.542Z,102340.25
2023-02-14T12:57:20.116Z,102327.06
2023-02-14T13:00:24.584Z,102319.03
2023-02-14T13:03:13.668Z,102331.34
2023-02-14T13:06:06.040Z,102332.94
2023-02-14T13:09:07.238Z,102324.41
2023-02-14T13:11:58.779Z,102320.03
2023-02-14T13:15:12.420Z,102315.25
2023-02-14T13:18:00.435Z,102321.16
2023-02-14T13:20:54.268Z,102319.31
2023-02-14T13:23:39.912Z,102307.63
2023-02-14T13:26:14.307Z,102313.75
2023-02-14T13:29:00.298Z,102309.34
2023-02-14T13:31:27.574Z,102304.44
2023-02-14T13:34:02.583Z,102308.09
2023-02-14T13:36:31.038Z,102320.69
2023-02-14T13:38:59.654Z,102315.56
2023-02-14T13:41:28.274Z,102318.06
2023-02-14T13:44:02.595Z,102308.16
2023-02-14T13:46:32.464Z,102299.94
2023-02-14T13:49:20.284Z,102292.81
2023-02-14T13:51:59.938Z,102294.03
2023-02-14T13:54:50.899Z,102298.78
2023-02-14T13:57:31.651Z,102301.97
2023-02-14T14:00:17.522Z,102304.69
2023-02-14T14:02:52.713Z,102299.81
2023-02-14T14:05:35.548Z,102302.94
2023-02-14T14:08:20.650Z,102312.53
2023-02-14T14:11:00.776Z,102295.88
2023-02-14T14:13:42.943Z,102301.22
2023-02-14T14:16:28.587Z,102294.19
2023-02-14T14:19:22.039Z,102302.22
2023-02-14T14:22:03.511Z,102292.41
2023-02-14T14:24:33.534Z,102290.38
2023-02-14T14:27:23.343Z,102281.53
2023-02-14T14:30:03.767Z,102278.22
2023-02-14T14:32:38.563Z,102284.19
2023-02-14T14:35:13.398Z,102296.06
2023-02-14T14:37:49.257Z,102280.06
2023-02-14T14:40:33.282Z,102272.56
2023-02-14T14:43:13.800Z,102269.25
2023-02-14T14:45:52.938Z,102290.34
2023-02-14T14:48:30.449Z,102281.91
2023-02-14T14:50:58.236Z,102284.13
2023-02-14T14:53:44.645Z,102275.34
2023-02-14T14:56:22.902Z,102272.09
2023-02-14T14:58:49.980Z,102265.97
2023-02-14T15:01:40.331Z,102265.28
2023-02-14T15:04:12.395Z,102272.31
2023-02-14T15:06:40.004Z,102258.81
2023-02-14T15:09:36.887Z,102255.69
2023-02-14T15:12:24.008Z,102238.78
2023-02-14T15:14:54.895Z,102249.47
2023-02-14T15:17:32.166Z,102243.72
2023-02-14T15:20:06.031Z,102236.94
2023-02-14T15:22:42.459Z,102248.66
2023-02-14T15:25:16.311Z,102248.66
2023-02-14T15:27:44.174Z,102247.34
2023-02-14T15:30:23.214Z,102250.69
2023-02-14T15:32:51.574Z,102247.84
2023-02-14T15:35:30.662Z,102245.53
2023-02-14T15:38:01.911Z,102234.22
2023-02-14T15:40:32.514Z,102229.28
2023-02-14T15:43:32.319Z,102229.38
2023-02-14T15:46:28.327Z,102235.13
2023-02-14T15:48:58.732Z,102230.19
2023-02-14T15:51:32.733Z,102219.22
2023-02-14T15:54:23.372Z,102214.00
2023-02-14T15:56:52.956Z,102226.84
2023-02-14T15:59:26.253Z,102215.06
2023-02-14T16:02:21.033Z,102210.38
2023-02-14T16:04:48.095Z,102224.06
2023-02-14T16:07:28.268Z,102212.19
2023-02-14T16:10:24.523Z,102210.75
2023-02-14T16:13:14.798Z,102206.03
2023-02-14T16:15:59.805Z,102202.31
2023-02-14T16:18:50.521Z,102201.09
2023-02-14T16:21:31.243Z,102207.22
2023-02-14T16:24:07.355Z,102200.19
2023-02-14T16:26:45.442Z,102196.16
2023-02-14T16:29:16.160Z,102197.28
2023-02-14T16:32:16.127Z,102187.44
2023-02-14T16:34:45.606Z,102195.25
2023-02-14T16:37:31.935Z,102182.16
2023-02-14T16:40:01.709Z,102187.97
2023-02-14T16:42:28.858Z,102188.19
2023-02-14T16:44:55.842Z,102190.00
2023-02-14T16:47:22.936Z,102199.75
2023-02-14T16:49:52.987Z,102194.09
2023-02-14T16:52:23.923Z,102196.13
2023-02-14T16:54:51.509Z,102190.94
2023-02-14T16:57:28.086Z,102196.28
2023-02-14T16:59:57.064Z,102201.06
2023-02-14T17:02:28.342Z,102200.38
2023-02-14T17:04:55.643Z,102195.50
2023-02-14T17:07:22.899Z,102195.50
2023-02-14T17:09:56.515Z,102198.78
2023-02-14T17:12:35.678Z,102199.13
2023-02-14T17:15:09.528Z,102195.72
2023-02-14T17:17:37.611Z,102203.25
2023-02-14T17:20:08.334Z,102193.22
2023-02-14T17:22:37.274Z,102209.34
2023-02-14T17:25:06.228Z,102199.66
2023-02-14T17:27:33.214Z,102207.59
2023-02-14T17:30:00.343Z,102208.50
2023-02-14T17:32:27.697Z,102211.00
2023-02-14T17:34:54.871Z,102209.84
2023-02-14T17:37:21.995Z,102210.75
2023-02-14T17:39:49.023Z,102215.72
2023-02-14T17:42:16.045Z,102214.69
2023-02-14T17:44:43.081Z,102206.06
2023-02-14T17:47:10.385Z,102196.88
2023-02-14T17:49:38.099Z,102203.03
2023-02-14T17:52:05.398Z,102196.88
2023-02-14T17:54:37.532Z,102192.84
2023-02-14T17:57:04.878Z,102203.13
2023-02-14T17:59:33.080Z,102190.00
2023-02-14T18:02:00.339Z,102180.84
2023-02-14T18:04:30.089Z,102188.19
2023-02-14T18:06:57.094Z,102179.56
2023-02-14T18:09:25.817Z,102177.66
2023-02-14T18:11:52.887Z,102177.66
2023-02-14T18:14:19.930Z,102173.47
2023-02-14T18:16:47.100Z,102170.28
2023-02-14T18:19:16.109Z,102172.31
2023-02-14T18:21:45.236Z,102156.91
2023-02-14T18:24:13.234Z,102168.47
2023-02-14T18:26:42.382Z,102158.59
2023-02-14T18:29:10.865Z,102139.78
2023-02-14T18:31:40.481Z,102142.13
2023-02-14T18:34:08.230Z,102141.81
2023-02-14T18:36:40.504Z,102138.19
2023-02-14T18:39:09.337Z,102127.00
2023-02-14T18:41:36.872Z,102129.81
2023-02-14T18:44:04.457Z,102123.72
2023-02-14T18:46:35.632Z,102124.28
2023-02-14T18:49:06.090Z,102120.53
2023-02-14T18:51:37.610Z,102107.94
2023-02-14T18:54:05.642Z,102097.75
2023-02-14T18:56:37.393Z,102100.56
2023-02-14T18:59:08.197Z,102094.25
2023-02-14T19:01:39.863Z,102097.75
2023-02-14T19:04:12.211Z,102085.41
2023-02-14T19:06:41.444Z,102085.72
2023-02-14T19:09:12.556Z,102075.66
2023-02-14T19:11:40.060Z,102074.38
2023-02-14T19:14:10.341Z,102070.88
2023-02-14T19:16:51.259Z,102064.31
2023-02-14T19:19:18.825Z,102057.63
2023-02-14T19:21:54.837Z,102057.41
2023-02-14T19:24:24.194Z,102050.47
2023-02-14T19:26:51.891Z,102050.59
2023-02-14T19:29:21.018Z,102039.16
2023-02-14T19:32:05.258Z,102045.16
2023-02-14T19:34:46.467Z,102033.03
2023-02-14T19:37:14.040Z,102032.22
2023-02-14T19:39:41.062Z,102034.94
2023-02-14T19:42:08.162Z,102026.69
2023-02-14T19:44:42.445Z,102017.06
2023-02-14T19:47:25.286Z,102025.25
2023-02-14T19:49:55.901Z,102016.72
2023-02-14T19:52:26.870Z,102009.72
2023-02-14T19:54:56.097Z,102007.69
2023-02-14T19:57:23.565Z,101993.75
2023-02-14T19:59:50.719Z,101991.56
2023-02-14T20:02:27.211Z,101979.09
2023-02-14T20:04:58.858Z,101977.72
2023-02-14T20:07:25.800Z,101971.72
2023-02-14T20:09:52.859Z,101970.69
2023-02-14T20:12:19.949Z,101970.00
2023-02-14T20:14:51.664Z,101962.56
2023-02-14T20:17:19.453Z,101958.56
2023-02-14T20:19:46.627Z,101947.94
2023-02-14T20:22:13.662Z,101952.03
2023-02-14T20:24:40.643Z,101936.88
2023-02-14T20:27:08.191Z,101943.28
2023-02-14T20:29:36.468Z,101941.50
2023-02-14T20:32:05.373Z,101934.78
2023-02-14T20:34:32.464Z,101930.47
2023-02-14T20:37:00.276Z,101931.97
2023-02-14T20:39:33.449Z,101922.91
2023-02-14T20:42:01.208Z,101923.44
2023-02-14T20:44:28.892Z,101919.31
2023-02-14T20:46:56.749Z,101915.31
2023-02-14T20:49:26.386Z,101908.06
2023-02-14T20:51:54.338Z,101899.25
2023-02-14T20:54:24.801Z,101900.69
2023-02-14T20:56:52.044Z,101892.84
2023-02-14T20:59:26.407Z,101892.75
2023-02-14T21:01:55.720Z,101890.63
2023-02-14T21:04:23.371Z,101887.22
2023-02-14T21:06:50.504Z,101875.78
2023-02-14T21:09:18.740Z,101865.47
2023-02-14T21:11:45.786Z,101864.34
2023-02-14T21:14:13.339Z,101854.81
2023-02-14T21:16:40.956Z,101855.41
2023-02-14T21:19:07.951Z,101851.22
2023-02-14T21:21:37.444Z,101846.31
2023-02-14T21:24:14.523Z,101838.50
2023-02-14T21:26:42.217Z,101837.09
2023-02-14T21:29:09.910Z,101838.91
2023-02-14T21:31:37.603Z,101836.81
2023-02-14T21:34:04.919Z,101816.84
2023-02-14T21:36:37.443Z,101825.19
2023-02-14T21:39:06.456Z,101815.72
2023-02-14T21:41:36.069Z,101821.03
2023-02-14T21:44:04.114Z,101817.75
2023-02-14T21:46:35.996Z,101812.94
2023-02-14T21:49:24.292Z,101804.91
2023-02-14T21:51:51.561Z,101798.91
2023-02-14T21:54:18.709Z,101795.38
2023-02-14T21:56:46.189Z,101796.41
2023-02-14T21:59:13.318Z,101803.41
2023-02-14T22:01:42.805Z,101798.31
2023-02-14T22:04:12.279Z,101799.00
2023-02-14T22:06:42.088Z,101793.69
2023-02-14T22:09:11.058Z,101797.59
2023-02-14T22:11:38.525Z,101782.75
2023-02-14T22:14:05.777Z,101785.16
2023-02-14T22:16:33.023Z,101785.44
2023-02-14T22:19:00.028Z,101786.84
2023-02-14T22:21:27.672Z,101784.25
2023-02-14T22:23:55.901Z,101787.25
2023-02-14T22:26:30.275Z,101776.63
2023-02-14T22:28:59.548Z,101784.84
2023-02-14T22:31:30.259Z,101779.13
2023-02-14T22:33:57.300Z,101776.13
2023-02-14T22:36:24.884Z,101772.72
2023-02-14T22:38:52.032Z,101768.72
2023-02-14T22:41:22.945Z,101768.81
2023-02-14T22:43:50.966Z,101771.63
2023-02-14T22:46:22.328Z,101759.97
2023-02-14T22:48:51.409Z,101763.00
2023-02-14T22:51:34.051Z,101762.78
2023-02-14T22:54:08.135Z,101758.28
2023-02-14T22:56:39.018Z,101753.56
2023-02-14T22:59:14.480Z,101739.63
2023-02-14T23:01:41.625Z,101751.78
2023-02-14T23:04:08.994Z,101745.84
2023-02-14T23:06:37.290Z,101739.03
2023-02-14T23:09:07.274Z,101739.03
2023-02-14T23:11:37.407Z,101737.44
2023-02-14T23:14:24.532Z,101733.91
2023-02-14T23:17:10.609Z,101735.63
2023-02-14T23:19:56.919Z,101736.53
2023-02-14T23:22:28.552Z,101742.53
2023-02-14T23:24:59.194Z,101738.63
2023-02-14T23:27:41.617Z,101742.84
2023-02-14T23:30:13.699Z,101736.94
2023-02-14T23:32:40.854Z,101734.72
2023-02-14T23:35:08.791Z,101735.44
2023-02-14T23:37:36.770Z,101734.81
2023-02-14T23:40:07.853Z,101734.72
2023-02-14T23:42:35.015Z,101728.81
2023-02-14T23:45:20.833Z,101726.00
2023-02-14T23:47:47.892Z,101731.50
2023-02-14T23:50:15.754Z,101727.00
2023-02-14T23:52:44.671Z,101715.66
2023-02-14T23:55:12.343Z,101723.50
2023-02-14T23:57:39.645Z,101719.78
